ENT7RD EPKT-LOWW
Flight info
| Callsign | ENT7RD |
|---|---|
| Flight time | N/A |
| Altitude | 26000 |
| Route | ADADO DCT MIKOV MIKOV8W |
| Aircraft | B738/M-SDE2E3FGHIRWXY/LB1 |
Departure
| Time | 2026-05-06 19:44 |
|---|---|
| Airport | Katowice Wojciech Korfanty International Airport (EPKT) |
Arrival
| Time | N/A |
|---|---|
| Airport | Vienna International Airport (LOWW) |
| Time | Latitude | Longitude | Altitude | Speed | Heading |
|---|---|---|---|---|---|
| 2026-05-06 19:35 | 50.47156 | 19.09644 | 1003 ft | 0 kts | 185° |
| 2026-05-06 19:41 | 50.47150 | 19.09643 | 1004 ft | 4 kts | 181° |
| 2026-05-06 19:41 | 50.47141 | 19.09673 | 1004 ft | 3 kts | 72° |
| 2026-05-06 19:41 | 50.47158 | 19.09700 | 1004 ft | 3 kts | 38° |
| 2026-05-06 19:42 | 50.47179 | 19.09725 | 1004 ft | 4 kts | 36° |
| 2026-05-06 19:42 | 50.47213 | 19.09802 | 1005 ft | 26 kts | 75° |
| 2026-05-06 19:42 | 50.47250 | 19.10095 | 1007 ft | 27 kts | 72° |
| 2026-05-06 19:42 | 50.47373 | 19.10297 | 1009 ft | 25 kts | 50° |
| 2026-05-06 19:43 | 50.47500 | 19.10441 | 1010 ft | 22 kts | 360° |
| 2026-05-06 19:43 | 50.47595 | 19.10306 | 1007 ft | 26 kts | 280° |
| 2026-05-06 19:43 | 50.47594 | 19.09627 | 1003 ft | 100 kts | 268° |
| 2026-05-06 19:43 | 50.47604 | 19.08187 | 990 ft | 162 kts | 269° |
| 2026-05-06 19:44 | 50.47596 | 19.06266 | 1495 ft | 178 kts | 267° |
| 2026-05-06 19:44 | 50.47601 | 19.04395 | 2510 ft | 168 kts | 265° |
| 2026-05-06 19:44 | 50.47593 | 19.02471 | 3062 ft | 188 kts | 264° |
| 2026-05-06 19:44 | 50.47576 | 19.00265 | 3366 ft | 212 kts | 264° |
| 2026-05-06 19:45 | 50.47569 | 18.97850 | 3765 ft | 227 kts | 265° |
| 2026-05-06 19:45 | 50.47498 | 18.95348 | 4350 ft | 232 kts | 253° |
| 2026-05-06 19:45 | 50.46979 | 18.92840 | 4713 ft | 252 kts | 246° |
| 2026-05-06 19:45 | 50.46387 | 18.90203 | 5425 ft | 259 kts | 248° |
| 2026-05-06 19:46 | 50.45794 | 18.87573 | 6504 ft | 252 kts | 245° |
| 2026-05-06 19:46 | 50.45180 | 18.84965 | 7303 ft | 257 kts | 246° |
| 2026-05-06 19:46 | 50.44592 | 18.82276 | 8077 ft | 264 kts | 247° |
| 2026-05-06 19:46 | 50.44009 | 18.79561 | 8865 ft | 268 kts | 247° |
| 2026-05-06 19:47 | 50.43414 | 18.76778 | 9711 ft | 271 kts | 248° |
| 2026-05-06 19:47 | 50.42803 | 18.73935 | 10244 ft | 284 kts | 248° |
| 2026-05-06 19:47 | 50.42141 | 18.70873 | 10436 ft | 308 kts | 248° |
| 2026-05-06 19:47 | 50.41426 | 18.67579 | 10613 ft | 330 kts | 248° |
| 2026-05-06 19:48 | 50.40671 | 18.64089 | 11054 ft | 342 kts | 248° |
| 2026-05-06 19:48 | 50.39903 | 18.60537 | 11731 ft | 345 kts | 248° |
| 2026-05-06 19:48 | 50.39127 | 18.56954 | 12473 ft | 348 kts | 249° |
| 2026-05-06 19:48 | 50.38345 | 18.53347 | 13208 ft | 350 kts | 249° |
| 2026-05-06 19:49 | 50.37561 | 18.49748 | 13850 ft | 354 kts | 249° |
| 2026-05-06 19:49 | 50.36563 | 18.46225 | 14443 ft | 355 kts | 236° |
| 2026-05-06 19:49 | 50.35042 | 18.43207 | 15087 ft | 355 kts | 225° |
| 2026-05-06 19:49 | 50.33172 | 18.40667 | 15693 ft | 358 kts | 218° |
| 2026-05-06 19:50 | 50.31176 | 18.38282 | 16219 ft | 363 kts | 217° |
| 2026-05-06 19:50 | 50.29147 | 18.35883 | 16814 ft | 366 kts | 217° |
| 2026-05-06 19:50 | 50.27798 | 18.34290 | 17234 ft | 367 kts | 217° |
| 2026-05-06 19:50 | 50.27397 | 18.33816 | 17356 ft | 368 kts | 217° |
| 2026-05-06 19:51 | 50.25353 | 18.31396 | 17947 ft | 371 kts | 217° |
| 2026-05-06 19:51 | 50.23285 | 18.28941 | 18463 ft | 374 kts | 218° |
| 2026-05-06 19:51 | 50.21239 | 18.26506 | 18985 ft | 376 kts | 218° |
| 2026-05-06 19:51 | 50.19129 | 18.23993 | 19550 ft | 377 kts | 218° |
| 2026-05-06 19:52 | 50.17039 | 18.21502 | 20054 ft | 379 kts | 218° |
| 2026-05-06 19:52 | 50.14939 | 18.19000 | 20550 ft | 382 kts | 218° |
| 2026-05-06 19:52 | 50.12846 | 18.16507 | 21049 ft | 384 kts | 218° |
| 2026-05-06 19:52 | 50.10722 | 18.13981 | 21570 ft | 385 kts | 218° |
| 2026-05-06 19:53 | 50.08583 | 18.11438 | 22055 ft | 387 kts | 218° |
| 2026-05-06 19:53 | 50.06435 | 18.08888 | 22517 ft | 390 kts | 218° |
| 2026-05-06 19:53 | 50.04273 | 18.06325 | 22999 ft | 391 kts | 218° |
| 2026-05-06 19:53 | 50.02113 | 18.03767 | 23615 ft | 388 kts | 218° |
| 2026-05-06 19:54 | 49.99978 | 18.01242 | 24233 ft | 384 kts | 218° |
| 2026-05-06 19:54 | 49.97857 | 17.98737 | 24762 ft | 382 kts | 218° |
| 2026-05-06 19:54 | 49.95740 | 17.96238 | 25245 ft | 382 kts | 218° |
| 2026-05-06 19:54 | 49.93629 | 17.93749 | 25691 ft | 382 kts | 218° |
| 2026-05-06 19:55 | 49.91504 | 17.91245 | 25750 ft | 382 kts | 218° |
| 2026-05-06 19:55 | 49.89389 | 17.88759 | 25780 ft | 381 kts | 218° |
| 2026-05-06 19:55 | 49.87270 | 17.86268 | 25778 ft | 382 kts | 218° |
| 2026-05-06 19:55 | 49.85149 | 17.83780 | 25790 ft | 382 kts | 218° |
| 2026-05-06 19:56 | 49.83055 | 17.81324 | 25785 ft | 383 kts | 218° |
| 2026-05-06 19:56 | 49.80928 | 17.78833 | 25772 ft | 383 kts | 218° |
| 2026-05-06 19:56 | 49.78797 | 17.76340 | 25777 ft | 383 kts | 218° |
| 2026-05-06 19:56 | 49.76668 | 17.73853 | 25776 ft | 384 kts | 218° |
| 2026-05-06 19:57 | 49.74539 | 17.71368 | 25775 ft | 384 kts | 218° |
| 2026-05-06 19:57 | 49.72402 | 17.68877 | 25774 ft | 384 kts | 218° |
| 2026-05-06 19:57 | 49.70272 | 17.66398 | 25770 ft | 383 kts | 218° |
| 2026-05-06 19:57 | 49.68139 | 17.63917 | 25782 ft | 383 kts | 218° |
| 2026-05-06 19:58 | 49.66050 | 17.61491 | 25776 ft | 383 kts | 218° |
| 2026-05-06 19:58 | 49.63960 | 17.59064 | 25775 ft | 383 kts | 218° |
| 2026-05-06 19:58 | 49.61835 | 17.56601 | 25769 ft | 382 kts | 218° |
| 2026-05-06 19:58 | 49.59705 | 17.54135 | 25770 ft | 382 kts | 218° |
| 2026-05-06 19:59 | 49.57583 | 17.51680 | 25779 ft | 382 kts | 218° |
| 2026-05-06 19:59 | 49.55457 | 17.49224 | 25774 ft | 382 kts | 218° |
| 2026-05-06 19:59 | 49.53330 | 17.46770 | 25764 ft | 382 kts | 218° |
| 2026-05-06 19:59 | 49.51202 | 17.44316 | 25765 ft | 382 kts | 218° |
| 2026-05-06 20:00 | 49.49106 | 17.41901 | 25768 ft | 381 kts | 218° |
| 2026-05-06 20:00 | 49.46978 | 17.39452 | 25774 ft | 381 kts | 218° |
| 2026-05-06 20:00 | 49.44854 | 17.37013 | 25768 ft | 381 kts | 218° |
| 2026-05-06 20:00 | 49.42727 | 17.34573 | 25768 ft | 381 kts | 218° |
| 2026-05-06 20:01 | 49.41316 | 17.32956 | 25769 ft | 381 kts | 218° |